WetterOnline ( http://www.wetteronline.ch )

Wetter aktuell Hamburg

Aktuelles Wetter: Hamburg/Fuhlsbüttel (15m)

6-stündlich | Neueste Meldungen
Ortszeit Temperatur Wetter
Mo, 25.03. 7:00 3.4° C leichte Schauer
Mo, 25.03. 1:00 4.9° C wolkig
So, 24.03. 19:00 6.8° C fast wolkenlos
So, 24.03. 13:00 8.2° C leicht bewölkt
So, 24.03. 7:00 3.1° C leicht bewölkt
So, 24.03. 1:00 4.6° C wolkig
Sa, 23.03. 19:00 7.9° C leicht bewölkt
Sa, 23.03. 13:00 9.0° C bedeckt
Ortszeit Temperatur Wetter
Mo, 25.03. 12:20 5° C leichte Schauer
Mo, 25.03. 12:00 6.7° C bewölkt
Mo, 25.03. 11:50 6.7° C -
Mo, 25.03. 11:40 6.4° C -
Mo, 25.03. 11:30 5.7° C -
Mo, 25.03. 11:20 5.7° C -
Mo, 25.03. 11:00 4.4° C wolkig
Mo, 25.03. 10:30 3.3° C -
Mo, 25.03. 10:00 3.0° C leichte Schauer
Mo, 25.03. 9:30 3.4° C -
Mo, 25.03. 9:00 3.8° C leichte Schauer
Ortszeit Relative Feuchte Sichtweite
Mo, 25.03. 7:00 91% 7 km
Mo, 25.03. 1:00 74% 30 km
So, 24.03. 19:00 72% 40 km
So, 24.03. 13:00 57% 30 km
So, 24.03. 7:00 94% 12 km
So, 24.03. 1:00 88% 13 km
Sa, 23.03. 19:00 73% 30 km
Sa, 23.03. 13:00 84% 5.0 km
Ortszeit Relative Feuchte Sichtweite
Mo, 25.03. 12:20 87% 9 km
Mo, 25.03. 12:00 72% 40 km
Mo, 25.03. 11:50 72% -
Mo, 25.03. 11:40 74% -
Mo, 25.03. 11:30 83% 45 km
Mo, 25.03. 11:20 83% -
Mo, 25.03. 11:00 91% 30 km
Mo, 25.03. 10:30 92% 5.0 km
Mo, 25.03. 10:00 90% 8 km
Mo, 25.03. 9:30 91% 7 km
Mo, 25.03. 9:00 90% 8 km
Ortszeit Niederschlagsmenge Niederschlagsart
Mo, 25.03. 7:00 2 l/m2 in 12 Std. Schauer
Mo, 25.03. 1:00 0.0 l/m2 in 6 Std. -
So, 24.03. 19:00 0.0 l/m2 in 12 Std. -
So, 24.03. 13:00 0.0 l/m2 in 6 Std. -
So, 24.03. 7:00 0.0 l/m2 in 12 Std. -
So, 24.03. 1:00 0.0 l/m2 in 6 Std. -
Sa, 23.03. 19:00 0.0 l/m2 in 12 Std. -
Sa, 23.03. 13:00 0.0 l/m2 in 6 Std. -
Ortszeit Niederschlagsmenge Niederschlagsart
Mo, 25.03. 12:20 keine Meldung -
Mo, 25.03. 12:00 0.0 l/m2 in 1 Std. -
Mo, 25.03. 11:50 keine Meldung -
Mo, 25.03. 11:40 keine Meldung -
Mo, 25.03. 11:30 0.0 l/m2 in 1 Std. -
Mo, 25.03. 11:20 keine Meldung -
Mo, 25.03. 11:00 0.6 l/m2 in 1 Std. Schauer
Mo, 25.03. 10:30 0.5 l/m2 in 1 Std. -
Mo, 25.03. 10:00 1.6 l/m2 in 1 Std. Schauer
Mo, 25.03. 9:30 0.5 l/m2 in 1 Std. -
Mo, 25.03. 9:00 0.1 l/m2 in 1 Std. Schauer
Ortszeit Stärke Spitze Richtung
km/h Bft. km/h Grad Sektor
Mo, 25.03. 7:00 11 2 43 260° W
Mo, 25.03. 1:00 18 3 29 230° SW
So, 24.03. 19:00 14 3 32 290° W
So, 24.03. 13:00 14 3 22 270° W
So, 24.03. 7:00 2 1 9 300° NW
So, 24.03. 1:00 6 1 20 260° W
Sa, 23.03. 19:00 17 3 35 290° W
Sa, 23.03. 13:00 13 3 22 280° W
Ortszeit Stärke Spitze Richtung
km/h Bft. km/h Grad Sektor
Mo, 25.03. 12:20 28 4 - 300° NW
Mo, 25.03. 12:00 25 4 32 310° NW
Mo, 25.03. 11:50 25 4 - 310° NW
Mo, 25.03. 11:40 15 3 - 300° NW
Mo, 25.03. 11:30 14 3 25 290° W
Mo, 25.03. 11:20 14 3 - 290° W
Mo, 25.03. 11:00 11 2 18 290° W
Mo, 25.03. 10:30 9 2 19 270° W
Mo, 25.03. 10:00 14 3 29 280° W
Mo, 25.03. 9:30 13 3 28 260° W
Mo, 25.03. 9:00 17 3 26 250° W
Ortszeit Untergrenze Bedeckung Gattung
total tief tief mittel hoch
Mo, 25.03. 7:00 240 m 7/8 7/8 Cb - -
Mo, 25.03. 1:00 1260 m 6/8 6/8 Sc - -
So, 24.03. 19:00 900 m 1/8 1/8 Cu - -
So, 24.03. 13:00 930 m 4/8 2/8 Cu Ac -
So, 24.03. 7:00 4500 m 7/8 7/8 - Ac -
So, 24.03. 1:00 3600 m 7/8 7/8 - As -
Sa, 23.03. 19:00 4800 m 5/8 5/8 - As Ci
Sa, 23.03. 13:00 270 m 8/8 7/8 St - -
Ortszeit Bedeckungsgrad in Achtel und Wolkenuntergrenze
Mo, 25.03. 12:20 1-2(240m) 3-4(540m) 5-7(660m)
Mo, 25.03. 12:00 2(360m) 6(570m)
Mo, 25.03. 11:50 -
Mo, 25.03. 11:40 -
Mo, 25.03. 11:30 -
Mo, 25.03. 11:20 -
Mo, 25.03. 11:00 1(270m) 4(450m) 2(360m)
Mo, 25.03. 10:30 -
Mo, 25.03. 10:00 7(270m)
Mo, 25.03. 9:30 -
Mo, 25.03. 9:00 3(210m) 5(1200m) 3(420m)
Ortszeit Luftdruck NN (hPa) Tendenz (hPa in 3 Std.)
Mo, 25.03. 7:00 1012 - 0,5
Mo, 25.03. 1:00 1016 - 3,9
So, 24.03. 19:00 1022 - 1,4
So, 24.03. 13:00 1026 - 2,0
So, 24.03. 7:00 1029 - 0,8
So, 24.03. 1:00 1031 - 0,2
Sa, 23.03. 19:00 1030 + 1,3
Sa, 23.03. 13:00 1029 + 1,2
Ortszeit Luftdruck NN (hPa) Tendenz (hPa in 3 Std.)
Mo, 25.03. 12:20 1015 keine Meldung
Mo, 25.03. 12:00 1015 + 2,1
Mo, 25.03. 11:50 1015 keine Meldung
Mo, 25.03. 11:40 1015 keine Meldung
Mo, 25.03. 11:30 1015 + 2,1
Mo, 25.03. 11:20 1015 keine Meldung
Mo, 25.03. 11:00 1014 + 1,9
Mo, 25.03. 10:30 1014 + 1,6
Mo, 25.03. 10:00 1014 + 1,3
Mo, 25.03. 9:30 1013 + 0,7
Mo, 25.03. 9:00 1013 + 0,4
Ortszeit Schneehöhe (cm)
Mo, 25.03. 7:00 0
Mo, 25.03. 1:00 0
So, 24.03. 19:00 0
So, 24.03. 13:00 0
So, 24.03. 7:00 0
So, 24.03. 1:00 0
Sa, 23.03. 19:00 0
Sa, 23.03. 13:00 0
Ortszeit Schneehöhe (cm)
Mo, 25.03. 12:20 -
Mo, 25.03. 12:00 -
Mo, 25.03. 11:50 -
Mo, 25.03. 11:40 -
Mo, 25.03. 11:30 -
Mo, 25.03. 11:20 -
Mo, 25.03. 11:00 -
Mo, 25.03. 10:30 -
Mo, 25.03. 10:00 -
Mo, 25.03. 9:30 -
Mo, 25.03. 9:00 -
Link zu dieser Seite / Seite empfehlen

Das Wetter in ...